Time;durP1;ratioP1;P1;durP2;ratioP2;P2;SDS_P1;SDS_P2;PMS_P1;PMS_P2;Temp;Humidity;BMP_temperature;BMP_pressure;BME280_temperature;BME280_humidity;BME280_pressure;Samples;Min_cycle;Max_cycle;Signal;HPM_P1;HPM_P2
2022/11/13 00:00:40;;;;;;;62.25;15.85;;;;;;;13.96;83.45;102415.22;5089248;28;20085;-78
2022/11/13 00:03:05;;;;;;;22.05;14.48;;;;;;;13.92;83.38;102391.16;5089653;28;20020;-77
2022/11/13 00:05:30;;;;;;;23.33;15.27;;;;;;;13.94;83.27;102414.44;5089611;28;20038;-76
2022/11/13 00:07:56;;;;;;;25.02;16.38;;;;;;;14.07;83.08;102415.34;5089733;28;20034;-78
2022/11/13 00:10:22;;;;;;;27.90;15.55;;;;;;;14.08;82.90;102418.94;5071934;28;20075;-78
2022/11/13 00:12:47;;;;;;;26.30;14.32;;;;;;;14.11;82.57;102416.00;5089246;28;20036;-76
2022/11/13 00:15:13;;;;;;;28.05;14.88;;;;;;;14.16;82.24;102413.84;5089555;28;20096;-76
2022/11/13 00:17:38;;;;;;;20.50;13.20;;;;;;;14.12;81.74;102399.69;5095486;28;20053;-77
2022/11/13 00:20:04;;;;;;;27.52;13.90;;;;;;;14.18;81.29;102401.97;5101123;28;20032;-76
2022/11/13 00:22:30;;;;;;;23.40;14.50;;;;;;;14.06;81.11;102375.75;5101287;28;20058;-77
2022/11/13 00:24:55;;;;;;;30.05;12.68;;;;;;;14.15;80.85;102395.91;5089730;28;20103;-76
2022/11/13 00:27:20;;;;;;;25.83;12.52;;;;;;;14.25;80.91;102396.16;5089201;28;20035;-77
2022/11/13 00:29:46;;;;;;;35.67;13.00;;;;;;;14.10;80.49;102376.38;5088622;28;20467;-78
2022/11/13 00:32:11;;;;;;;18.08;12.30;;;;;;;14.18;80.34;102385.75;5036431;28;20121;-77
2022/11/13 00:34:36;;;;;;;20.98;12.60;;;;;;;14.28;79.91;102395.94;5089083;28;20048;-77
2022/11/13 00:37:02;;;;;;;19.83;12.35;;;;;;;14.13;80.04;102360.81;5089151;28;20111;-78
2022/11/13 00:39:27;;;;;;;16.98;12.23;;;;;;;14.31;79.66;102393.00;5089159;28;20107;-78
2022/11/13 00:41:53;;;;;;;15.32;11.65;;;;;;;14.24;79.46;102370.03;5088982;28;20020;-77
2022/11/13 00:44:18;;;;;;;15.15;10.85;;;;;;;14.37;79.15;102388.06;5052677;28;20041;-76
2022/11/13 00:46:43;;;;;;;21.42;12.60;;;;;;;14.38;79.22;102384.38;5088505;28;20496;-78
2022/11/13 00:49:09;;;;;;;19.23;11.85;;;;;;;14.31;78.95;102384.91;5088869;28;20107;-78
2022/11/13 00:51:34;;;;;;;37.20;12.55;;;;;;;14.33;78.91;102374.84;5088716;28;20023;-78
2022/11/13 00:54:00;;;;;;;19.27;12.10;;;;;;;14.33;79.05;102385.69;5070630;28;20024;-76
2022/11/13 00:56:26;;;;;;;26.38;11.70;;;;;;;14.33;79.00;102380.25;5088754;28;20427;-78
2022/11/13 00:58:51;;;;;;;21.13;11.45;;;;;;;14.28;79.33;102382.41;5088619;28;20061;-76
2022/11/13 01:01:19;;;;;;;25.35;12.93;;;;;;;14.02;79.60;102341.75;5088852;28;20020;-76
2022/11/13 01:03:44;;;;;;;25.02;13.70;;;;;;;14.14;79.70;102376.09;5084298;28;20501;-78
2022/11/13 01:06:22;;;;;;;23.92;12.60;;;;;;;14.15;79.97;102375.13;5079140;28;20028;-77
2022/11/13 01:08:48;;;;;;;26.35;12.13;;;;;;;14.19;79.76;102375.75;5088456;28;20032;-77
2022/11/13 01:11:18;;;;;;;30.98;12.55;;;;;;;14.19;79.92;102387.44;5085654;28;20036;-77
2022/11/13 01:13:46;;;;;;;27.83;12.38;;;;;;;14.18;79.86;102374.03;5087529;28;20035;-77
2022/11/13 01:16:13;;;;;;;27.60;13.38;;;;;;;14.24;79.81;102384.44;5071077;28;20077;-78
2022/11/13 01:18:40;;;;;;;18.27;11.60;;;;;;;14.13;79.92;102368.94;5089067;28;20024;-77
2022/11/13 01:21:11;;;;;;;19.20;10.45;;;;;;;14.22;79.74;102374.72;5088882;28;20479;-77
2022/11/13 01:23:37;;;;;;;47.42;13.43;;;;;;;14.25;79.42;102385.31;5087257;28;20028;-76
2022/11/13 01:26:14;;;;;;;127.82;16.95;;;;;;;14.23;79.47;102381.84;5072108;28;20048;-78
2022/11/13 01:28:41;;;;;;;33.03;12.00;;;;;;;14.28;78.83;102379.69;5092025;28;20029;-77
2022/11/13 01:31:09;;;;;;;25.70;11.52;;;;;;;14.27;78.41;102386.06;5085816;28;20061;-75
2022/11/13 01:33:34;;;;;;;17.42;10.80;;;;;;;14.27;78.40;102376.13;5082798;28;20043;-77
2022/11/13 01:36:06;;;;;;;19.33;10.55;;;;;;;14.21;78.23;102379.25;5086645;28;20057;-76
2022/11/13 01:38:33;;;;;;;22.95;12.65;;;;;;;14.14;78.23;102377.91;5067995;28;20137;-77
2022/11/13 01:40:58;;;;;;;24.80;12.60;;;;;;;14.11;78.81;102373.59;5068217;28;20553;-77
2022/11/13 01:43:30;;;;;;;15.90;10.52;;;;;;;14.00;78.85;102368.06;5068091;28;20044;-77
2022/11/13 01:45:58;;;;;;;16.53;11.10;;;;;;;13.94;79.15;102371.16;5080625;28;20185;-77
2022/11/13 01:48:31;;;;;;;17.08;10.80;;;;;;;13.93;79.15;102368.56;5088286;28;20304;-76
2022/11/13 01:50:57;;;;;;;16.48;11.30;;;;;;;13.88;79.10;102371.56;5088333;28;20030;-76
2022/11/13 01:53:25;;;;;;;16.83;12.63;;;;;;;13.78;79.19;102365.06;5035830;28;20093;-76
2022/11/13 01:55:50;;;;;;;19.55;11.85;;;;;;;13.80;79.29;102359.53;5089468;28;20020;-76
2022/11/13 01:58:16;;;;;;;18.00;11.75;;;;;;;13.81;79.35;102363.97;5094073;28;20033;-77
2022/11/13 02:00:42;;;;;;;23.60;13.50;;;;;;;13.80;79.37;102357.69;5056076;28;20051;-79
2022/11/13 02:03:07;;;;;;;19.48;12.23;;;;;;;13.78;79.72;102364.19;5092200;28;20043;-77
2022/11/13 02:05:32;;;;;;;23.00;13.35;;;;;;;13.71;79.74;102363.72;5098049;28;20028;-76
2022/11/13 02:07:59;;;;;;;28.38;15.77;;;;;;;13.65;79.85;102369.53;5112370;28;20027;-76
2022/11/13 02:10:24;;;;;;;24.73;15.75;;;;;;;13.63;80.05;102366.09;5112441;28;20020;-77
2022/11/13 02:12:51;;;;;;;25.10;16.27;;;;;;;13.58;80.08;102369.09;5112508;28;20027;-76
2022/11/13 02:15:20;;;;;;;26.48;18.73;;;;;;;13.57;80.15;102369.19;5110427;28;20438;-78
2022/11/13 02:17:51;;;;;;;32.83;19.20;;;;;;;13.40;80.13;102347.81;5096904;28;20673;-77
2022/11/13 02:20:25;;;;;;;28.30;19.00;;;;;;;13.47;80.58;102366.22;5092249;28;20025;-76
2022/11/13 02:22:55;;;;;;;27.10;18.05;;;;;;;13.42;80.83;102367.50;5091988;28;20454;-77
2022/11/13 02:25:20;;;;;;;35.17;19.85;;;;;;;13.21;80.73;102331.91;5092201;28;20032;-77
2022/11/13 02:27:48;;;;;;;31.70;19.27;;;;;;;13.34;80.71;102375.22;5107044;28;20030;-76
2022/11/13 02:30:22;;;;;;;37.75;20.20;;;;;;;13.19;81.46;102370.81;5112482;28;20103;-76
2022/11/13 02:32:50;;;;;;;38.03;21.35;;;;;;;13.17;81.39;102370.94;5112161;28;20603;-77
2022/11/13 02:35:28;;;;;;;33.45;20.60;;;;;;;13.13;81.59;102365.81;5109451;28;20112;-77
2022/11/13 02:37:56;;;;;;;46.30;21.48;;;;;;;13.03;81.82;102366.38;5109174;28;20119;-76
2022/11/13 02:40:22;;;;;;;43.95;20.42;;;;;;;12.99;81.85;102372.97;5112983;28;20036;-78
2022/11/13 02:42:48;;;;;;;40.80;20.83;;;;;;;13.05;81.77;102375.28;5114899;28;20032;-77
2022/11/13 02:45:13;;;;;;;31.60;19.65;;;;;;;12.99;81.86;102380.19;5105259;28;20028;-77
2022/11/13 02:47:38;;;;;;;38.20;20.90;;;;;;;12.96;82.08;102366.88;5091029;28;20020;-76
2022/11/13 02:50:05;;;;;;;43.17;20.10;;;;;;;12.92;81.89;102374.31;5091385;28;20084;-76
2022/11/13 02:52:30;;;;;;;34.22;20.45;;;;;;;12.91;82.23;102383.38;5108339;28;20513;-77
2022/11/13 02:54:56;;;;;;;31.75;20.35;;;;;;;12.93;82.14;102380.59;5099017;28;20080;-77
2022/11/13 02:57:21;;;;;;;47.00;20.17;;;;;;;12.77;82.35;102361.78;5111114;28;20379;-78
2022/11/13 02:59:47;;;;;;;36.17;22.15;;;;;;;12.82;82.29;102374.97;5111553;28;20035;-77
2022/11/13 03:02:12;;;;;;;31.48;20.35;;;;;;;12.73;82.63;102384.53;5111359;28;20379;-78
2022/11/13 03:04:38;;;;;;;43.67;22.73;;;;;;;12.73;82.66;102379.13;5110267;28;20050;-77
2022/11/13 03:07:03;;;;;;;40.35;21.80;;;;;;;12.52;82.77;102348.06;5090859;28;20024;-77
2022/11/13 03:09:29;;;;;;;46.42;24.33;;;;;;;12.71;82.50;102380.19;5089953;28;20024;-77
2022/11/13 03:11:54;;;;;;;52.15;25.00;;;;;;;12.70;82.91;102382.00;5090549;28;20030;-77
2022/11/13 03:14:20;;;;;;;41.45;23.05;;;;;;;12.70;82.85;102384.72;5090509;28;20020;-77
2022/11/13 03:16:46;;;;;;;40.70;22.55;;;;;;;12.60;82.81;102367.34;5109036;28;20106;-77
2022/11/13 03:19:11;;;;;;;40.97;23.30;;;;;;;12.69;82.70;102374.88;5093089;28;20032;-78
2022/11/13 03:21:37;;;;;;;45.80;23.05;;;;;;;12.68;82.26;102391.19;5090531;28;20657;-76
2022/11/13 03:24:02;;;;;;;37.70;19.38;;;;;;;12.64;82.49;102384.22;5090528;28;20027;-76
2022/11/13 03:26:28;;;;;;;40.63;20.65;;;;;;;12.66;81.83;102377.75;5107108;28;20461;-77
2022/11/13 03:28:54;;;;;;;31.30;19.83;;;;;;;12.60;82.02;102383.53;5110897;28;20414;-77
2022/11/13 03:31:20;;;;;;;33.83;16.73;;;;;;;12.53;82.02;102372.28;5057762;28;20417;-76
2022/11/13 03:33:45;;;;;;;27.08;16.80;;;;;;;12.52;81.32;102380.47;5110938;28;20043;-79
2022/11/13 03:36:10;;;;;;;29.95;17.90;;;;;;;12.51;81.30;102373.31;5095698;28;20044;-78
2022/11/13 03:38:36;;;;;;;42.33;18.77;;;;;;;12.54;81.15;102379.38;5091385;28;20420;-77
2022/11/13 03:41:02;;;;;;;30.77;18.15;;;;;;;12.31;80.92;102342.16;5090205;28;20043;-77
2022/11/13 03:43:27;;;;;;;66.15;20.95;;;;;;;12.44;81.15;102369.28;5090266;28;20394;-77
2022/11/13 03:45:53;;;;;;;35.33;19.45;;;;;;;12.32;81.08;102351.13;5106481;28;20024;-77
2022/11/13 03:48:18;;;;;;;42.20;18.42;;;;;;;12.46;81.35;102364.63;5104073;28;20099;-77
2022/11/13 03:50:47;;;;;;;29.10;18.17;;;;;;;12.49;81.15;102370.72;5099314;28;20456;-77
2022/11/13 03:53:13;;;;;;;39.17;19.65;;;;;;;12.44;81.02;102369.28;5089733;28;20186;-77
2022/11/13 03:55:38;;;;;;;37.10;19.45;;;;;;;12.37;81.23;102359.81;5100354;28;20632;-77
2022/11/13 03:58:04;;;;;;;32.78;19.65;;;;;;;12.39;81.38;102363.28;5109912;28;20118;-77
2022/11/13 04:00:30;;;;;;;44.40;20.63;;;;;;;12.02;80.81;102314.25;5109837;28;20406;-76
2022/11/13 04:02:55;;;;;;;36.95;19.75;;;;;;;12.30;81.31;102359.31;5109896;28;20394;-76
2022/11/13 04:05:21;;;;;;;34.03;21.45;;;;;;;12.08;81.44;102331.91;5101578;28;20031;-77
2022/11/13 04:07:47;;;;;;;41.97;22.48;;;;;;;12.22;81.50;102363.44;5089379;28;20031;-78
2022/11/13 04:10:12;;;;;;;43.95;22.65;;;;;;;12.12;81.79;102359.56;5089617;28;20016;-77
2022/11/13 04:12:38;;;;;;;37.85;23.52;;;;;;;12.14;82.05;102363.06;5089650;28;20035;-76
2022/11/13 04:15:05;;;;;;;48.95;24.50;;;;;;;12.10;82.06;102361.50;5090708;28;20105;-78
2022/11/13 04:17:30;;;;;;;38.20;22.65;;;;;;;12.06;81.90;102365.31;5089629;28;20031;-77
2022/11/13 04:19:55;;;;;;;44.85;24.48;;;;;;;11.96;81.81;102365.00;5089658;28;20028;-78
2022/11/13 04:22:21;;;;;;;39.17;23.52;;;;;;;11.97;81.84;102367.63;5089637;28;20030;-78
2022/11/13 04:24:46;;;;;;;41.45;24.30;;;;;;;11.89;82.54;102375.31;5093530;28;20020;-77
2022/11/13 04:27:12;;;;;;;46.25;23.83;;;;;;;11.77;82.85;102354.44;5109810;28;20028;-78
2022/11/13 04:29:37;;;;;;;43.17;22.45;;;;;;;11.61;82.86;102345.50;5109900;28;20539;-77
2022/11/13 04:32:03;;;;;;;40.65;23.88;;;;;;;11.64;83.39;102368.69;5109709;28;20833;-78
2022/11/13 04:34:28;;;;;;;45.67;22.67;;;;;;;11.69;83.07;102375.56;5107267;28;20031;-77
2022/11/13 04:36:53;;;;;;;43.90;25.73;;;;;;;11.72;83.15;102380.78;5053356;28;20036;-79
2022/11/13 04:39:19;;;;;;;43.80;23.90;;;;;;;11.71;82.86;102384.44;5104122;28;20047;-77
2022/11/13 04:44:28;;;;;;;42.22;21.73;;;;;;;11.71;82.87;102387.13;5109499;28;20030;-77
2022/11/13 04:46:54;;;;;;;37.63;20.95;;;;;;;11.70;82.62;102384.53;5085212;28;20020;-76
2022/11/13 04:49:19;;;;;;;43.75;23.10;;;;;;;11.69;82.72;102378.25;5069223;28;20027;-76
2022/11/13 04:51:44;;;;;;;42.67;20.98;;;;;;;11.42;82.63;102342.13;5069097;28;20036;-76
2022/11/13 04:54:10;;;;;;;39.72;22.80;;;;;;;11.41;82.83;102343.06;5077722;28;20029;-78
2022/11/13 04:56:35;;;;;;;52.75;25.17;;;;;;;11.58;82.95;102385.22;5105442;28;20024;-76
2022/11/13 04:59:01;;;;;;;50.58;25.23;;;;;;;11.56;82.71;102379.91;5099943;28;20030;-77
2022/11/13 05:01:26;;;;;;;45.50;23.88;;;;;;;11.55;82.54;102378.19;5093721;28;20028;-79
2022/11/13 05:03:51;;;;;;;58.40;25.13;;;;;;;11.45;82.68;102379.66;5108947;28;20024;-77
2022/11/13 05:06:17;;;;;;;34.45;22.48;;;;;;;11.47;82.61;102377.75;5109135;28;20140;-77
2022/11/13 05:08:42;;;;;;;39.10;21.17;;;;;;;11.36;82.64;102374.81;5109265;28;20106;-77
2022/11/13 05:11:08;;;;;;;36.25;20.27;;;;;;;11.32;82.64;102382.19;5109283;28;20019;-77
2022/11/13 05:13:35;;;;;;;35.72;20.80;;;;;;;11.18;82.04;102381.22;5108949;28;20028;-77
2022/11/13 05:16:06;;;;;;;38.67;21.13;;;;;;;11.16;82.10;102385.84;5107311;28;20052;-77
2022/11/13 05:18:33;;;;;;;33.50;20.27;;;;;;;11.06;81.80;102387.28;5109230;28;20440;-76
2022/11/13 05:20:59;;;;;;;44.05;24.90;;;;;;;11.00;81.99;102383.13;5109006;28;20764;-76
2022/11/13 05:23:25;;;;;;;51.88;31.95;;;;;;;10.85;81.84;102383.97;5109014;28;20035;-78
2022/11/13 05:25:51;;;;;;;87.28;50.80;;;;;;;10.86;82.67;102391.94;5093140;28;20043;-77
2022/11/13 05:28:16;;;;;;;101.03;63.20;;;;;;;10.77;82.88;102387.06;5088782;28;20028;-77
2022/11/13 05:30:42;;;;;;;109.93;67.70;;;;;;;10.69;83.10;102399.19;5093732;28;20629;-78
2022/11/13 05:33:07;;;;;;;102.60;65.53;;;;;;;10.73;82.94;102388.16;5113210;28;20036;-77
2022/11/13 05:35:33;;;;;;;100.85;60.60;;;;;;;10.67;83.32;102383.13;5113044;28;20134;-77
2022/11/13 05:38:02;;;;;;;80.53;45.28;;;;;;;10.64;83.18;102375.22;5113010;28;20046;-77
2022/11/13 05:40:28;;;;;;;56.40;34.55;;;;;;;10.61;83.65;102396.91;5113158;28;20060;-77
2022/11/13 05:42:54;;;;;;;54.53;31.70;;;;;;;10.61;83.35;102396.91;5113064;28;20058;-76
2022/11/13 05:45:20;;;;;;;45.55;25.30;;;;;;;10.40;83.07;102360.38;5109591;28;20030;-77
2022/11/13 05:47:45;;;;;;;42.47;22.30;;;;;;;10.45;83.79;102369.09;5108597;28;20028;-77
2022/11/13 05:50:11;;;;;;;37.17;20.33;;;;;;;10.63;83.68;102404.91;5112877;28;20122;-78
2022/11/13 05:52:36;;;;;;;38.83;19.13;;;;;;;10.66;83.59;102411.00;5113283;28;20036;-80
2022/11/13 05:55:02;;;;;;;41.53;19.08;;;;;;;10.71;83.07;102417.00;5113332;28;20046;-78
2022/11/13 05:57:27;;;;;;;28.17;17.50;;;;;;;10.73;83.36;102412.38;5113555;28;20496;-79
2022/11/13 05:59:53;;;;;;;27.95;19.45;;;;;;;10.78;83.19;102415.72;5111747;28;20020;-79
2022/11/13 06:02:18;;;;;;;26.17;18.05;;;;;;;10.57;83.13;102373.81;5117224;28;20034;-75
2022/11/13 06:04:43;;;;;;;31.75;19.95;;;;;;;10.84;83.01;102415.41;5119797;28;20058;-78
2022/11/13 06:07:09;;;;;;;35.55;21.63;;;;;;;10.78;83.06;102421.13;5100890;28;20035;-77
2022/11/13 06:09:34;;;;;;;30.48;19.27;;;;;;;10.56;82.76;102398.97;5096841;28;20055;-77
2022/11/13 06:12:00;;;;;;;32.42;20.40;;;;;;;10.72;82.94;102417.88;5091214;28;20028;-77
2022/11/13 06:14:25;;;;;;;35.30;20.50;;;;;;;10.68;83.24;102403.72;5092111;28;20406;-77
2022/11/13 06:16:50;;;;;;;27.90;19.05;;;;;;;10.73;83.41;102423.16;5078523;28;20063;-77
2022/11/13 06:19:16;;;;;;;35.17;21.20;;;;;;;10.86;83.60;102415.28;5072416;28;20052;-77
2022/11/13 06:21:41;;;;;;;28.27;19.55;;;;;;;10.88;83.18;102414.28;5091927;28;20024;-76
2022/11/13 06:24:10;;;;;;;28.63;19.00;;;;;;;10.86;83.77;102391.94;5093277;28;20469;-78
2022/11/13 06:26:35;;;;;;;31.60;18.52;;;;;;;10.99;83.01;102404.75;5060687;28;20039;-80
2022/11/13 06:29:03;;;;;;;34.63;19.52;;;;;;;11.11;83.24;102418.41;5096756;28;20394;-80
2022/11/13 06:31:31;;;;;;;28.65;18.90;;;;;;;11.14;83.04;102420.03;5091698;28;20020;-75
2022/11/13 06:33:59;;;;;;;29.65;18.65;;;;;;;11.17;83.04;102407.28;5091999;28;20043;-82
2022/11/13 06:36:27;;;;;;;45.22;20.35;;;;;;;11.27;83.21;102408.53;5029315;28;20828;-77
2022/11/13 06:38:53;;;;;;;31.50;19.00;;;;;;;11.41;82.91;102411.28;5029610;28;20543;-76
2022/11/13 06:41:21;;;;;;;36.08;19.20;;;;;;;11.50;83.34;102412.59;5043176;28;20044;-76
2022/11/13 06:43:47;;;;;;;28.52;18.48;;;;;;;11.60;82.43;102411.13;5027207;28;20613;-76
2022/11/13 06:46:16;;;;;;;31.58;19.02;;;;;;;11.54;82.54;102383.66;5028749;28;20059;-77
2022/11/13 06:48:41;;;;;;;32.30;18.40;;;;;;;11.65;82.11;102397.41;5029099;28;20045;-75
2022/11/13 06:51:11;;;;;;;40.83;18.55;;;;;;;11.79;81.94;102408.28;5028346;28;20045;-76
2022/11/13 06:53:37;;;;;;;37.40;20.52;;;;;;;11.71;81.78;102386.28;5028115;28;20042;-77
2022/11/13 06:56:04;;;;;;;53.50;29.52;;;;;;;11.90;81.60;102409.38;5011434;28;20042;-75
2022/11/13 06:58:30;;;;;;;35.35;20.10;;;;;;;11.94;81.04;102408.25;5045888;28;20025;-76
2022/11/13 07:00:55;;;;;;;33.38;20.38;;;;;;;12.06;80.85;102408.47;5048360;28;20091;-77
2022/11/13 07:03:24;;;;;;;42.70;20.42;;;;;;;12.17;80.97;102400.63;5048669;28;20035;-75
2022/11/13 07:05:50;;;;;;;40.65;20.52;;;;;;;12.19;80.65;102390.59;5032803;28;20040;-75
2022/11/13 07:08:16;;;;;;;42.38;19.55;;;;;;;12.21;80.56;102385.97;5063335;28;20040;-75
2022/11/13 07:10:42;;;;;;;38.88;18.70;;;;;;;12.34;79.96;102386.97;5073193;28;20039;-75
2022/11/13 07:13:08;;;;;;;28.75;18.85;;;;;;;12.40;79.91;102390.19;5101483;28;20028;-76
2022/11/13 07:15:38;;;;;;;34.63;19.13;;;;;;;12.43;79.63;102386.41;5097354;28;20036;-75
2022/11/13 07:18:05;;;;;;;36.20;17.80;;;;;;;12.32;79.28;102364.63;5092805;28;20055;-74
2022/11/13 07:20:32;;;;;;;32.28;19.20;;;;;;;12.53;79.09;102388.47;5090743;28;20467;-76
2022/11/13 07:22:59;;;;;;;92.47;51.38;;;;;;;12.57;79.08;102384.59;5090845;28;20026;-74
2022/11/13 07:25:25;;;;;;;36.83;18.70;;;;;;;12.58;78.78;102380.06;5105401;28;20487;-75
2022/11/13 07:27:52;;;;;;;46.25;21.38;;;;;;;12.56;78.52;102371.22;5111004;28;20039;-74
2022/11/13 07:30:18;;;;;;;49.28;27.30;;;;;;;12.65;78.03;102378.75;5108940;28;20024;-74
2022/11/13 07:32:43;;;;;;;32.80;20.67;;;;;;;12.74;78.45;102383.56;5109061;28;20421;-77
2022/11/13 07:35:09;;;;;;;33.67;20.65;;;;;;;12.74;78.08;102383.56;5098980;28;20048;-76
2022/11/13 07:37:35;;;;;;;27.67;19.17;;;;;;;12.78;78.25;102385.09;5090002;28;20024;-76
2022/11/13 07:40:00;;;;;;;41.90;20.48;;;;;;;12.86;77.90;102382.78;5090613;28;20032;-76
2022/11/13 07:42:26;;;;;;;36.40;19.95;;;;;;;12.89;77.96;102385.31;5089866;28;20093;-76
2022/11/13 07:44:51;;;;;;;35.42;18.50;;;;;;;12.96;77.83;102377.69;5093312;28;20042;-76
2022/11/13 07:47:16;;;;;;;29.90;19.20;;;;;;;13.01;77.72;102376.41;5109789;28;20028;-76
2022/11/13 07:49:42;;;;;;;33.25;17.38;;;;;;;13.03;77.42;102371.78;5100493;28;20024;-75
2022/11/13 07:52:07;;;;;;;37.42;19.00;;;;;;;13.13;77.45;102371.22;5090547;28;20073;-75
2022/11/13 07:54:33;;;;;;;35.53;19.75;;;;;;;13.07;77.31;102338.22;5097094;28;20093;-74
2022/11/13 07:56:58;;;;;;;40.22;20.20;;;;;;;13.37;77.45;102369.63;5107951;28;20030;-75
2022/11/13 07:59:24;;;;;;;33.60;17.45;;;;;;;13.50;77.18;102375.97;5108214;28;20036;-75
2022/11/13 08:01:49;;;;;;;32.00;18.38;;;;;;;13.61;76.75;102370.72;5110091;28;20027;-76
2022/11/13 08:04:15;;;;;;;32.17;18.50;;;;;;;13.73;76.34;102361.78;5110060;28;20543;-76
2022/11/13 08:06:40;;;;;;;40.72;19.95;;;;;;;13.95;75.94;102362.06;5109705;28;20085;-77
2022/11/13 08:09:06;;;;;;;33.17;19.63;;;;;;;14.02;75.59;102330.94;5109696;28;20110;-77
2022/11/13 08:11:31;;;;;;;31.52;18.70;;;;;;;14.20;75.25;102339.59;5090587;28;20447;-80
2022/11/13 08:13:57;;;;;;;47.45;28.13;;;;;;;14.57;74.99;102365.00;5053666;28;20039;-78
2022/11/13 08:16:22;;;;;;;34.17;18.80;;;;;;;14.74;73.85;102343.00;5085081;28;20518;-82
2022/11/13 08:18:48;;;;;;;30.90;17.50;;;;;;;15.06;73.21;102357.81;5084412;28;20184;-81
2022/11/13 08:21:14;;;;;;;29.90;17.30;;;;;;;15.27;72.39;102356.25;5094951;28;20028;-84
2022/11/13 08:23:41;;;;;;;31.65;16.55;;;;;;;15.61;71.34;102353.75;5073372;28;20042;-85
2022/11/13 08:26:07;;;;;;;27.85;17.92;;;;;;;15.83;70.56;102344.88;5106143;28;20031;-84
2022/11/13 08:28:33;;;;;;;35.65;19.48;;;;;;;16.13;69.58;102362.38;5110919;28;20111;-84
2022/11/13 08:30:59;;;;;;;37.33;16.65;;;;;;;16.37;68.70;102353.31;5108671;28;20039;-84
2022/11/13 08:33:25;;;;;;;77.45;20.08;;;;;;;16.56;68.03;102340.03;5107508;28;20080;-85
2022/11/13 08:35:54;;;;;;;31.65;16.25;;;;;;;16.84;66.75;102347.72;5093852;28;20036;-83
2022/11/13 08:38:20;;;;;;;32.33;15.70;;;;;;;17.03;66.11;102342.50;5085831;28;20094;-79
2022/11/13 08:40:46;;;;;;;31.65;16.08;;;;;;;16.96;64.32;102322.28;5088655;28;20064;-77
2022/11/13 08:43:11;;;;;;;42.22;19.80;;;;;;;17.25;64.18;102347.94;5088771;28;20130;-77
2022/11/13 08:45:36;;;;;;;29.45;15.95;;;;;;;17.46;63.99;102347.16;5048015;28;20047;-76
2022/11/13 08:48:03;;;;;;;30.67;16.85;;;;;;;17.61;63.07;102337.75;5108732;28;20030;-76
2022/11/13 08:50:31;;;;;;;24.42;14.55;;;;;;;17.65;62.53;102312.88;5108630;28;20573;-81
2022/11/13 08:52:57;;;;;;;37.50;15.63;;;;;;;17.91;62.06;102340.59;5090493;28;20032;-76
2022/11/13 08:55:23;;;;;;;34.63;17.05;;;;;;;18.08;61.54;102331.84;5096729;28;20039;-77
2022/11/13 08:57:50;;;;;;;83.00;15.73;;;;;;;18.20;60.70;102325.34;5103046;28;20020;-75
2022/11/13 09:00:16;;;;;;;76.57;14.70;;;;;;;18.36;59.61;102333.03;5105542;28;20506;-78
2022/11/13 09:02:42;;;;;;;28.30;15.27;;;;;;;18.50;59.51;102327.28;5108702;28;20034;-78
2022/11/13 09:05:08;;;;;;;52.15;17.55;;;;;;;18.52;59.27;102329.88;5108011;28;20028;-76
2022/11/13 09:07:33;;;;;;;57.65;27.40;;;;;;;18.65;58.69;102325.97;5108365;28;20026;-76
2022/11/13 09:09:59;;;;;;;40.22;18.13;;;;;;;18.62;58.56;102312.59;5109158;28;20031;-76
2022/11/13 09:12:24;;;;;;;37.13;19.08;;;;;;;18.77;58.90;102302.19;5106999;28;20034;-76
2022/11/13 09:14:50;;;;;;;35.20;17.92;;;;;;;19.07;58.13;102314.91;5075665;28;20032;-74
2022/11/13 09:17:16;;;;;;;27.08;16.33;;;;;;;18.99;57.38;102304.69;5068556;28;20035;-76
2022/11/13 09:19:42;;;;;;;21.95;14.68;;;;;;;18.88;56.92;102282.97;5068475;28;20033;-76
2022/11/13 09:22:07;;;;;;;29.73;14.88;;;;;;;19.18;57.17;102302.03;5068328;28;20472;-76
2022/11/13 09:24:33;;;;;;;132.98;22.00;;;;;;;19.25;57.02;102305.06;5071557;28;20036;-76
2022/11/13 09:26:59;;;;;;;35.90;15.45;;;;;;;19.36;56.77;102294.00;5078536;28;20058;-75
2022/11/13 09:29:27;;;;;;;34.83;15.32;;;;;;;19.55;56.52;102289.47;5064694;28;20048;-76
2022/11/13 09:31:53;;;;;;;39.97;18.20;;;;;;;19.63;56.43;102274.28;5095747;28;21031;-75
2022/11/13 09:34:18;;;;;;;35.80;18.83;;;;;;;19.72;55.92;102284.31;5090654;28;20063;-76
2022/11/13 09:36:44;;;;;;;40.70;14.70;;;;;;;19.62;55.45;102276.13;5088318;28;20055;-77
2022/11/13 09:39:10;;;;;;;42.83;13.88;;;;;;;19.67;55.53;102268.34;5088602;28;20024;-77
2022/11/13 09:41:46;;;;;;;27.08;15.40;;;;;;;19.59;56.25;102264.63;5052090;28;20059;-74
2022/11/13 09:44:28;;;;;;;29.60;14.45;;;;;;;19.49;55.58;102262.75;5100265;28;20035;-77
2022/11/13 09:47:07;;;;;;;49.42;24.40;;;;;;;19.66;55.72;102255.75;5087918;28;20023;-76
2022/11/13 09:49:38;;;;;;;55.15;10.70;;;;;;;19.86;54.27;102256.56;5099413;28;20089;-77
2022/11/13 09:52:13;;;;;;;38.78;14.20;;;;;;;19.98;53.70;102244.47;5088152;28;20074;-76
2022/11/13 09:54:38;;;;;;;27.25;12.88;;;;;;;19.77;53.56;102250.13;5052144;28;20135;-76
2022/11/13 09:57:22;;;;;;;19.23;12.32;;;;;;;19.96;53.97;102247.38;5084793;28;20103;-78
2022/11/13 09:59:55;;;;;;;38.83;13.73;;;;;;;20.03;53.25;102239.41;5082093;28;20557;-77
2022/11/13 10:02:31;;;;;;;26.17;15.98;;;;;;;19.94;52.91;102226.66;5087914;28;20020;-77
2022/11/13 10:05:09;;;;;;;41.85;17.65;;;;;;;20.06;52.82;102230.94;5087852;28;20031;-78
2022/11/13 10:07:52;;;;;;;53.75;19.48;;;;;;;20.16;53.33;102239.97;5090387;28;20097;-77
2022/11/13 10:10:30;;;;;;;31.45;18.85;;;;;;;20.16;53.17;102234.50;5108524;28;20027;-74
2022/11/13 10:12:58;;;;;;;49.08;19.77;;;;;;;20.17;53.14;102229.91;5108229;28;20028;-74
2022/11/13 10:15:25;;;;;;;50.08;17.65;;;;;;;20.29;53.15;102231.50;5105019;28;20371;-76
2022/11/13 10:18:03;;;;;;;46.20;19.88;;;;;;;20.31;53.00;102226.72;5089480;28;20028;-76
2022/11/13 10:20:38;;;;;;;47.45;19.98;;;;;;;20.06;52.18;102226.34;5094850;28;20551;-75
2022/11/13 10:23:33;;;;;;;30.70;17.77;;;;;;;19.98;53.10;102228.94;5097327;28;20095;-76
2022/11/13 10:26:24;;;;;;;77.95;20.88;;;;;;;19.70;53.88;102221.66;5111828;28;20406;-76
2022/11/13 10:29:07;;;;;;;43.13;19.08;;;;;;;19.66;53.83;102225.72;5110968;28;20075;-75
2022/11/13 10:31:50;;;;;;;33.67;18.42;;;;;;;19.90;53.88;102217.91;5111911;28;20429;-75
2022/11/13 10:34:17;;;;;;;34.53;18.20;;;;;;;19.93;53.57;102219.47;5112291;28;20069;-76
2022/11/13 10:37:27;;;;;;;27.30;15.45;;;;;;;19.97;53.51;102219.03;5113642;28;20106;-75
2022/11/13 10:39:52;;;;;;;27.02;14.52;;;;;;;20.08;52.22;102216.16;5112792;28;20039;-76
2022/11/13 10:42:40;;;;;;;20.92;12.88;;;;;;;20.06;52.42;102201.75;5090547;28;20024;-76
2022/11/13 10:45:18;;;;;;;38.92;11.80;;;;;;;20.20;51.97;102205.03;5071567;28;20062;-74
2022/11/13 10:47:50;;;;;;;32.80;10.30;;;;;;;19.99;51.15;102207.97;5090669;28;20036;-75
2022/11/13 10:50:18;;;;;;;31.52;10.82;;;;;;;19.43;52.84;102186.06;5090672;28;20034;-76
2022/11/13 10:52:48;;;;;;;23.50;11.77;;;;;;;19.77;52.91;102200.97;5091105;28;20040;-74
2022/11/13 10:55:19;;;;;;;14.02;8.25;;;;;;;19.62;52.41;102204.28;5037812;28;20068;-74
2022/11/13 10:57:55;;;;;;;52.03;10.00;;;;;;;19.42;53.12;102212.47;5090587;28;20477;-75
2022/11/13 11:00:43;;;;;;;20.55;8.60;;;;;;;18.99;53.89;102201.91;5090954;28;20035;-74
2022/11/13 11:03:20;;;;;;;19.38;8.93;;;;;;;18.74;54.87;102204.31;5090459;28;20031;-74
2022/11/13 11:06:03;;;;;;;17.15;9.63;;;;;;;18.90;54.66;102204.63;5055051;28;20043;-75
2022/11/13 11:08:34;;;;;;;27.85;8.82;;;;;;;18.69;55.43;102203.84;5090543;28;20116;-74
2022/11/13 11:13:47;;;;;;;28.30;11.95;;;;;;;18.54;56.15;102169.81;5090592;28;20055;-74
2022/11/13 11:16:22;;;;;;;17.02;7.38;;;;;;;18.55;55.22;102196.06;5090646;28;20035;-74